MMML/MXL METAR and TAF weather

Enter ICAO airport designator
Station Type Date Time Source
MMML METAR 2020/07/06 00:45 UTC NOAA

MMML 060045Z 00000KT 10SM SKC 43/01 A2966


Station Type Date Time Source
MMML Decoded METAR 2020/07/06 00:45 UTC NOAA

Mexicali International Airport , Mexico (MMML) 32-38N 117-00W
Jul 05, 2020 - 08:45 PM EDT / 2020.07.06 0045 UTC
Wind: Calm:0
Visibility: 10 mile(s):0
Sky conditions: clear
Temperature: 109 F (43 C)
Dew Point: 33 F (1 C)
Relative Humidity: 7%
Pressure (altimeter): 29.66 in. Hg (1004 hPa)
ob: MMML 060045Z 00000KT 10SM SKC 43/01 A2966
cycle: 1

Station Type Date Time Source
MMML TAF 2020/07/05 18:30 UTC NOAA

TAF MMML 051627Z 0518/0618 27005KT P6SM SKC
BECMG 0520/0521 25012KT
FM060200 00000KT P6SM SKC
BECMG 0612/0613 32006KT

Example: see airport list